Weather at Žabljak Airport [CLOSED]

Public forecast

Using degrees Celsius for public forecast. Weather courtesy of forecast.io.

Closest aviation weather report (METAR) to Žabljak Airport

Closest report is Podgorica Airport / Podgorica Golubovci Airbase, 45.5 nm (84.2 km) S.

2022/12/04 04:00 (retrieved 21 minutes ago)

LYPG 040400Z 32003KT 280V360 5000 BR OVC070 08/08 Q1020 NOSIG

Closest aviation forecast (TAF) to Žabljak Airport

Forecast is more than 12 hours old.

Closest forecast is Kukës International Airport, 83.3 nm (154.3 km) SE.

2022/12/03 12:00 Ammendment (retrieved 16 hours ago)

TAF AMD LAKU 031530Z 0312/0412 CNL